Time;durP1;ratioP1;P1;durP2;ratioP2;P2;SDS_P1;SDS_P2;PMS_P1;PMS_P2;Temp;Humidity;BMP_temperature;BMP_pressure;BME280_temperature;BME280_humidity;BME280_pressure;Samples;Min_cycle;Max_cycle;Signal;HPM_P1;HPM_P2
2023/07/29 00:01:06;;;;;;;5.80;5.30;;;17.80;99.90;;;;;;4945749;28;20031;-71
2023/07/29 00:03:32;;;;;;;5.30;4.80;;;17.80;99.90;;;;;;4950086;28;20066;-71
2023/07/29 00:05:59;;;;;;;6.50;4.95;;;17.80;99.90;;;;;;4950384;28;20387;-71
2023/07/29 00:08:25;;;;;;;5.40;4.90;;;17.80;99.90;;;;;;4935513;28;20038;-71
2023/07/29 00:10:52;;;;;;;4.65;3.95;;;17.80;99.90;;;;;;4939578;28;20038;-71
2023/07/29 00:13:18;;;;;;;5.00;4.20;;;17.80;99.90;;;;;;4952900;28;20050;-70
2023/07/29 00:15:45;;;;;;;5.03;3.55;;;17.70;99.90;;;;;;4920344;28;20035;-71
2023/07/29 00:18:11;;;;;;;4.55;3.83;;;17.70;99.90;;;;;;4931248;28;20062;-71
2023/07/29 00:20:37;;;;;;;3.08;2.40;;;17.70;99.90;;;;;;4935528;28;20065;-71
2023/07/29 00:23:04;;;;;;;2.80;1.77;;;17.70;99.90;;;;;;4933829;28;20382;-71
2023/07/29 00:25:30;;;;;;;4.43;2.50;;;17.70;99.90;;;;;;4952643;28;20038;-71
2023/07/29 00:27:58;;;;;;;2.13;1.55;;;17.70;99.90;;;;;;4932334;28;20043;-71
2023/07/29 00:30:24;;;;;;;2.70;1.35;;;17.70;99.90;;;;;;4920503;28;20485;-71
2023/07/29 00:32:51;;;;;;;1.92;1.58;;;17.70;99.90;;;;;;4934848;28;20046;-71
2023/07/29 00:35:17;;;;;;;3.13;1.50;;;17.70;99.90;;;;;;4935637;28;20039;-71
2023/07/29 00:37:43;;;;;;;3.10;2.00;;;17.60;99.90;;;;;;4948355;28;20014;-71
2023/07/29 00:40:19;;;;;;;3.67;2.00;;;17.60;99.90;;;;;;4920811;28;20045;-71
2023/07/29 00:42:49;;;;;;;1.95;1.40;;;17.60;99.90;;;;;;4936740;28;20039;-70
2023/07/29 00:45:15;;;;;;;2.17;1.10;;;17.50;99.90;;;;;;4933961;28;20597;-71
2023/07/29 00:47:43;;;;;;;1.77;0.90;;;17.50;99.90;;;;;;4936296;28;20367;-71
2023/07/29 00:50:11;;;;;;;1.73;0.93;;;17.50;99.90;;;;;;4962204;28;20023;-70
2023/07/29 00:52:38;;;;;;;1.73;0.90;;;17.40;99.90;;;;;;4952032;28;20046;-71
2023/07/29 00:55:06;;;;;;;1.63;0.65;;;17.40;99.90;;;;;;4954974;28;20027;-70
2023/07/29 00:57:33;;;;;;;1.58;0.77;;;17.30;99.90;;;;;;4950536;28;23643;-70
2023/07/29 01:00:00;;;;;;;1.50;0.80;;;17.30;99.90;;;;;;4946910;28;20042;-70
2023/07/29 01:02:29;;;;;;;1.63;0.82;;;17.30;99.90;;;;;;4965393;28;20504;-71
2023/07/29 01:04:58;;;;;;;1.73;0.90;;;17.30;99.90;;;;;;4958194;28;20529;-71
2023/07/29 01:07:27;;;;;;;1.52;0.70;;;17.20;99.90;;;;;;4940130;28;20053;-70
2023/07/29 01:10:10;;;;;;;2.15;0.88;;;17.20;99.90;;;;;;4923477;28;20031;-70
2023/07/29 01:12:48;;;;;;;1.10;0.70;;;17.30;99.90;;;;;;4954580;28;20058;-71
2023/07/29 01:15:27;;;;;;;1.40;0.80;;;17.30;99.90;;;;;;4968019;28;20038;-70
2023/07/29 01:17:59;;;;;;;1.20;0.63;;;17.40;99.90;;;;;;4938014;28;20034;-70
2023/07/29 01:20:26;;;;;;;1.67;0.80;;;17.50;99.90;;;;;;4942011;28;20034;-71
2023/07/29 01:22:53;;;;;;;1.38;0.70;;;17.50;99.90;;;;;;4940116;28;20328;-70
2023/07/29 01:25:19;;;;;;;1.60;0.85;;;17.60;99.90;;;;;;4955249;28;20047;-70
2023/07/29 01:27:48;;;;;;;2.83;1.00;;;17.70;99.90;;;;;;4952657;28;20483;-70
2023/07/29 01:30:14;;;;;;;2.13;0.60;;;17.70;99.90;;;;;;4923411;28;20031;-71
2023/07/29 01:32:55;;;;;;;1.00;0.60;;;17.80;99.90;;;;;;4948808;28;20038;-71
2023/07/29 01:35:35;;;;;;;1.50;0.80;;;17.80;99.90;;;;;;4953073;28;20053;-70
2023/07/29 01:38:08;;;;;;;1.42;0.75;;;17.80;99.90;;;;;;4936575;28;20031;-71
2023/07/29 01:40:35;;;;;;;1.20;0.80;;;17.80;99.90;;;;;;4958435;28;20038;-70
2023/07/29 01:43:02;;;;;;;1.35;0.70;;;17.80;99.90;;;;;;4964093;28;20026;-71
2023/07/29 01:45:31;;;;;;;1.63;1.00;;;17.80;99.90;;;;;;4924121;28;20046;-70
2023/07/29 01:47:58;;;;;;;1.42;0.88;;;17.80;99.90;;;;;;4907811;28;20031;-70
2023/07/29 01:50:24;;;;;;;1.60;1.10;;;17.80;99.90;;;;;;4922669;28;20042;-71
2023/07/29 01:52:51;;;;;;;1.83;0.82;;;17.80;99.90;;;;;;4953797;28;20050;-71
2023/07/29 01:55:18;;;;;;;2.15;1.20;;;17.90;99.90;;;;;;4941011;28;20039;-71
2023/07/29 01:57:44;;;;;;;1.67;0.93;;;17.90;99.90;;;;;;4954318;28;20031;-71
2023/07/29 02:00:11;;;;;;;1.40;1.00;;;17.90;99.90;;;;;;4934237;28;20037;-71
2023/07/29 02:02:41;;;;;;;1.58;0.80;;;18.00;99.90;;;;;;4937147;28;20517;-71
2023/07/29 02:05:08;;;;;;;2.38;1.10;;;18.00;99.90;;;;;;4952063;28;20033;-72
2023/07/29 02:07:34;;;;;;;2.13;1.30;;;18.00;99.90;;;;;;4954725;28;20031;-71
2023/07/29 02:10:00;;;;;;;2.70;1.50;;;18.00;99.90;;;;;;4935732;28;20057;-71
2023/07/29 02:12:27;;;;;;;1.90;1.45;;;18.10;99.90;;;;;;4938750;28;20103;-72
2023/07/29 02:14:53;;;;;;;2.85;1.80;;;18.10;99.90;;;;;;4953597;28;20568;-71
2023/07/29 02:17:20;;;;;;;3.10;2.35;;;18.10;99.90;;;;;;4924696;28;20042;-71
2023/07/29 02:19:47;;;;;;;4.30;2.28;;;18.10;99.90;;;;;;4934179;28;20027;-71
2023/07/29 02:22:16;;;;;;;3.22;2.60;;;18.20;99.90;;;;;;4921551;28;20046;-71
2023/07/29 02:24:42;;;;;;;3.17;2.60;;;18.20;99.90;;;;;;4938611;28;20046;-70
2023/07/29 02:27:09;;;;;;;3.72;3.08;;;18.20;99.90;;;;;;4907755;28;20043;-71
2023/07/29 02:29:35;;;;;;;3.80;2.90;;;18.20;99.90;;;;;;4936851;28;20042;-70
2023/07/29 02:32:02;;;;;;;4.18;3.78;;;18.30;99.90;;;;;;4955479;28;20034;-71
2023/07/29 02:34:29;;;;;;;5.15;3.60;;;18.30;99.90;;;;;;4939738;28;20429;-70
2023/07/29 02:36:56;;;;;;;4.95;4.22;;;18.30;99.90;;;;;;4938143;28;20035;-70
2023/07/29 02:39:23;;;;;;;5.25;4.20;;;18.30;99.90;;;;;;4905282;28;20045;-71
2023/07/29 02:41:50;;;;;;;4.90;3.70;;;18.30;99.90;;;;;;4940705;28;20063;-70
2023/07/29 02:44:16;;;;;;;5.38;4.22;;;18.40;99.90;;;;;;4934325;28;20046;-71
2023/07/29 02:46:43;;;;;;;4.95;4.22;;;18.40;99.90;;;;;;4939548;28;20038;-71
2023/07/29 02:49:09;;;;;;;6.10;5.13;;;18.40;99.90;;;;;;4920134;28;20030;-71
2023/07/29 02:51:36;;;;;;;4.85;4.07;;;18.50;99.90;;;;;;4923491;28;20042;-71
2023/07/29 02:54:02;;;;;;;4.82;3.78;;;18.40;99.90;;;;;;4962809;28;20038;-70
2023/07/29 02:56:30;;;;;;;4.88;4.22;;;18.50;99.90;;;;;;4921536;28;20415;-71
2023/07/29 02:58:57;;;;;;;4.93;4.20;;;18.50;99.90;;;;;;4934406;28;20038;-71
2023/07/29 03:01:25;;;;;;;6.07;5.47;;;18.50;99.90;;;;;;4935541;28;20054;-71
2023/07/29 03:03:51;;;;;;;6.32;5.15;;;18.50;99.90;;;;;;4919722;28;20038;-71
2023/07/29 03:06:17;;;;;;;5.68;5.07;;;18.50;99.90;;;;;;4947186;28;20043;-71
2023/07/29 03:08:44;;;;;;;6.13;5.07;;;18.50;99.90;;;;;;4933702;28;20030;-71
2023/07/29 03:11:13;;;;;;;6.13;4.63;;;18.50;99.90;;;;;;4949375;28;20031;-71
2023/07/29 03:13:39;;;;;;;6.72;5.28;;;18.40;99.90;;;;;;4922230;28;20034;-71
2023/07/29 03:16:17;;;;;;;6.20;5.60;;;18.40;99.90;;;;;;4935606;28;20066;-70
2023/07/29 03:18:49;;;;;;;5.65;5.00;;;18.40;99.90;;;;;;4948180;28;20478;-70
2023/07/29 03:21:16;;;;;;;5.03;3.75;;;18.40;99.90;;;;;;4936567;28;20047;-71
2023/07/29 03:23:42;;;;;;;4.78;4.22;;;18.40;99.90;;;;;;4922779;28;20406;-71
2023/07/29 03:26:12;;;;;;;4.13;3.72;;;18.30;99.90;;;;;;4935534;28;20039;-71
2023/07/29 03:28:43;;;;;;;5.53;4.60;;;18.30;99.90;;;;;;4963181;28;20464;-71
2023/07/29 03:31:10;;;;;;;4.68;4.03;;;18.30;99.90;;;;;;4962059;28;20027;-71
2023/07/29 03:33:37;;;;;;;4.53;3.78;;;18.30;99.90;;;;;;4935479;28;20042;-71
2023/07/29 03:36:04;;;;;;;5.07;4.07;;;18.30;99.90;;;;;;4937099;28;20035;-71
2023/07/29 03:38:31;;;;;;;5.35;4.75;;;18.30;99.90;;;;;;4918488;28;20390;-71
2023/07/29 03:40:57;;;;;;;4.70;4.25;;;18.30;99.90;;;;;;4952714;28;20053;-70
2023/07/29 03:43:24;;;;;;;5.05;4.03;;;18.20;99.90;;;;;;4934842;28;20049;-71
2023/07/29 03:45:50;;;;;;;3.38;2.78;;;18.20;99.90;;;;;;4936261;28;20022;-70
2023/07/29 03:48:17;;;;;;;5.07;4.38;;;18.10;99.90;;;;;;4916594;28;20151;-70
2023/07/29 03:50:43;;;;;;;4.28;3.80;;;18.10;99.90;;;;;;4952946;28;20038;-71
2023/07/29 03:53:10;;;;;;;4.30;3.85;;;18.00;99.90;;;;;;4947192;28;20469;-71
2023/07/29 03:55:36;;;;;;;4.53;3.72;;;18.00;99.90;;;;;;4950650;28;20046;-71
2023/07/29 03:58:03;;;;;;;5.45;4.32;;;18.00;99.90;;;;;;4933095;28;20031;-70
2023/07/29 04:00:29;;;;;;;4.32;3.25;;;17.90;99.90;;;;;;4934467;28;20038;-71
2023/07/29 04:02:56;;;;;;;4.38;2.70;;;17.90;99.90;;;;;;4933900;28;20228;-71
2023/07/29 04:05:22;;;;;;;4.13;3.70;;;17.90;99.90;;;;;;4918803;28;20035;-71
2023/07/29 04:07:49;;;;;;;4.45;3.58;;;17.80;99.90;;;;;;4952845;28;20471;-71
2023/07/29 04:10:15;;;;;;;4.20;3.65;;;17.80;99.90;;;;;;4933942;28;20718;-71
2023/07/29 04:12:43;;;;;;;4.55;2.58;;;17.80;99.90;;;;;;4934059;28;20140;-71
2023/07/29 04:15:10;;;;;;;2.97;1.95;;;17.70;99.90;;;;;;4952928;28;21001;-70
2023/07/29 04:17:36;;;;;;;5.15;3.33;;;17.80;99.90;;;;;;4933400;28;20054;-70
2023/07/29 04:20:04;;;;;;;3.42;2.60;;;17.70;99.90;;;;;;4934051;28;20027;-71
2023/07/29 04:22:34;;;;;;;3.05;2.72;;;17.70;99.90;;;;;;4922936;28;20171;-71
2023/07/29 04:25:00;;;;;;;2.60;1.90;;;17.70;99.90;;;;;;4954137;28;20460;-71
2023/07/29 04:27:27;;;;;;;2.53;1.83;;;17.70;99.90;;;;;;4932129;28;20045;-70
2023/07/29 04:29:53;;;;;;;2.10;1.52;;;17.60;99.90;;;;;;4950198;28;20050;-70
2023/07/29 04:32:20;;;;;;;2.63;2.03;;;17.60;99.90;;;;;;4906915;28;20521;-70
2023/07/29 04:34:46;;;;;;;5.60;3.33;;;17.60;99.90;;;;;;4964992;28;20484;-71
2023/07/29 04:37:12;;;;;;;2.90;2.65;;;17.60;99.90;;;;;;4953834;28;21441;-70
2023/07/29 04:39:39;;;;;;;4.05;2.20;;;17.50;99.90;;;;;;4951776;28;20244;-70
2023/07/29 04:42:05;;;;;;;2.92;1.98;;;17.50;99.90;;;;;;4938777;28;20043;-71
2023/07/29 04:44:32;;;;;;;3.28;1.77;;;17.50;99.90;;;;;;4937253;28;20035;-70
2023/07/29 04:46:58;;;;;;;2.85;1.88;;;17.60;99.90;;;;;;4922175;28;20399;-70
2023/07/29 04:49:25;;;;;;;3.50;2.03;;;17.60;99.90;;;;;;4953355;28;20057;-71
2023/07/29 04:51:51;;;;;;;2.70;1.65;;;17.60;99.90;;;;;;4966655;28;20031;-70
2023/07/29 04:54:20;;;;;;;2.00;1.40;;;17.60;99.90;;;;;;4968345;28;20449;-70
2023/07/29 04:56:47;;;;;;;1.80;1.30;;;17.60;99.90;;;;;;4932807;28;20031;-70
2023/07/29 04:59:13;;;;;;;2.38;1.27;;;17.60;99.90;;;;;;4934225;28;21294;-70
2023/07/29 05:01:42;;;;;;;2.42;1.13;;;17.60;99.90;;;;;;4940678;28;20038;-70
2023/07/29 05:04:08;;;;;;;2.50;1.27;;;17.60;99.90;;;;;;4941602;28;20059;-70
2023/07/29 05:06:35;;;;;;;4.53;1.67;;;17.60;99.90;;;;;;4954337;28;20035;-70
2023/07/29 05:09:18;;;;;;;1.77;1.25;;;17.60;99.90;;;;;;4949067;28;20046;-70
2023/07/29 05:11:45;;;;;;;4.00;1.55;;;17.60;99.90;;;;;;4949730;28;20031;-71
2023/07/29 05:14:15;;;;;;;2.30;1.30;;;17.70;99.90;;;;;;4941739;28;20500;-71
2023/07/29 05:16:42;;;;;;;2.47;1.50;;;17.70;99.90;;;;;;4956883;28;20466;-70
2023/07/29 05:19:08;;;;;;;1.75;1.20;;;17.70;99.90;;;;;;4963390;28;20055;-71
2023/07/29 05:21:35;;;;;;;3.72;1.90;;;17.80;99.90;;;;;;4923415;28;20046;-70
2023/07/29 05:24:01;;;;;;;2.95;1.50;;;17.90;99.90;;;;;;4924353;28;20035;-70
2023/07/29 05:26:28;;;;;;;2.28;1.10;;;17.90;99.90;;;;;;4936566;28;20038;-71
2023/07/29 05:28:54;;;;;;;3.10;1.80;;;17.90;99.90;;;;;;4934812;28;20033;-70
2023/07/29 05:31:22;;;;;;;2.72;1.50;;;18.00;99.90;;;;;;4939334;28;20035;-70
2023/07/29 05:33:49;;;;;;;3.08;1.33;;;18.00;99.90;;;;;;4955672;28;20042;-70
2023/07/29 05:36:15;;;;;;;2.47;1.23;;;18.10;99.90;;;;;;4921140;28;20396;-71
2023/07/29 05:38:42;;;;;;;3.10;1.17;;;18.10;99.90;;;;;;4949662;28;20042;-71
2023/07/29 05:41:08;;;;;;;2.22;1.48;;;18.10;99.90;;;;;;4953779;28;20038;-71
2023/07/29 05:43:35;;;;;;;2.10;0.90;;;18.10;99.90;;;;;;4937006;28;20034;-70
2023/07/29 05:46:01;;;;;;;3.25;1.60;;;18.10;99.90;;;;;;4935049;28;20035;-71
2023/07/29 05:48:28;;;;;;;2.90;1.60;;;18.10;99.90;;;;;;4949140;28;20034;-70
2023/07/29 05:50:54;;;;;;;5.10;2.60;;;18.10;99.90;;;;;;4950162;28;20033;-70
2023/07/29 05:53:21;;;;;;;2.22;1.30;;;18.10;99.90;;;;;;4939126;28;20039;-71
2023/07/29 05:55:48;;;;;;;4.78;1.60;;;18.10;99.90;;;;;;4939515;28;20038;-71
2023/07/29 05:58:14;;;;;;;2.33;1.40;;;18.10;99.90;;;;;;4936473;28;20038;-72
2023/07/29 06:00:41;;;;;;;2.85;2.25;;;18.10;99.90;;;;;;4925245;28;20031;-71
2023/07/29 06:03:07;;;;;;;4.13;2.17;;;18.10;99.90;;;;;;4938930;28;20043;-71
2023/07/29 06:05:34;;;;;;;5.97;2.50;;;18.20;99.90;;;;;;4961835;28;20027;-70
2023/07/29 06:08:00;;;;;;;4.18;2.28;;;18.20;99.90;;;;;;4934138;28;20041;-70
2023/07/29 06:10:27;;;;;;;5.82;2.58;;;18.20;99.90;;;;;;4920040;28;20448;-71
2023/07/29 06:12:53;;;;;;;4.20;2.08;;;18.30;99.90;;;;;;4922210;28;20130;-71
2023/07/29 06:15:22;;;;;;;2.90;1.58;;;18.40;99.90;;;;;;4955733;28;20030;-71
2023/07/29 06:17:49;;;;;;;5.00;2.25;;;18.40;99.90;;;;;;4939253;28;20050;-70
2023/07/29 06:20:15;;;;;;;3.25;2.25;;;18.40;99.90;;;;;;4936425;28;20039;-71
2023/07/29 06:22:43;;;;;;;4.20;2.65;;;18.50;99.90;;;;;;4956721;28;20310;-71
2023/07/29 06:25:09;;;;;;;4.57;3.17;;;18.60;99.90;;;;;;4938856;28;20032;-71
2023/07/29 06:27:36;;;;;;;3.17;2.33;;;18.70;99.90;;;;;;4955139;28;20031;-70
2023/07/29 06:30:02;;;;;;;4.57;1.83;;;18.90;99.90;;;;;;4953565;28;20038;-71
2023/07/29 06:32:29;;;;;;;4.68;3.10;;;19.20;99.90;;;;;;4936936;28;20042;-72
2023/07/29 06:34:55;;;;;;;4.13;2.83;;;19.40;99.90;;;;;;4942923;28;20034;-76
2023/07/29 06:37:22;;;;;;;4.25;2.65;;;19.70;99.90;;;;;;4922412;28;20502;-72
2023/07/29 06:39:48;;;;;;;3.67;2.22;;;20.00;99.90;;;;;;4955212;28;20510;-72
2023/07/29 06:42:15;;;;;;;4.22;2.67;;;20.30;99.90;;;;;;4954105;28;20026;-72
2023/07/29 06:44:41;;;;;;;8.13;6.43;;;20.60;99.90;;;;;;4920654;28;20038;-73
2023/07/29 06:47:08;;;;;;;20.42;14.57;;;20.90;99.90;;;;;;4933081;28;20043;-72
2023/07/29 06:49:34;;;;;;;38.92;30.17;;;21.00;99.90;;;;;;4952549;28;20041;-72
2023/07/29 06:52:01;;;;;;;28.35;20.10;;;20.90;99.90;;;;;;4963978;28;20038;-72
2023/07/29 06:54:27;;;;;;;19.48;14.35;;;20.70;99.90;;;;;;4934058;28;20042;-72
2023/07/29 06:56:54;;;;;;;48.08;36.17;;;20.70;99.90;;;;;;4951141;28;20049;-72
2023/07/29 06:59:20;;;;;;;26.15;20.75;;;20.90;99.90;;;;;;4950845;28;20494;-72
2023/07/29 07:01:46;;;;;;;12.90;8.77;;;21.00;99.90;;;;;;4954206;28;20046;-72
2023/07/29 07:04:13;;;;;;;6.57;4.35;;;21.20;99.90;;;;;;4955452;28;20030;-72
2023/07/29 07:06:39;;;;;;;3.78;2.72;;;21.20;99.90;;;;;;4956408;28;20034;-72
2023/07/29 07:09:05;;;;;;;5.13;2.75;;;21.20;99.90;;;;;;4916268;28;20047;-72
2023/07/29 07:11:32;;;;;;;4.68;2.50;;;21.10;99.90;;;;;;4939476;28;20038;-72
2023/07/29 07:13:58;;;;;;;3.65;2.40;;;21.20;99.90;;;;;;4923285;28;20053;-72
2023/07/29 07:16:25;;;;;;;3.97;2.60;;;21.30;99.90;;;;;;4937301;28;20046;-72
2023/07/29 07:18:51;;;;;;;5.80;2.50;;;21.40;99.90;;;;;;4952684;28;20111;-72
2023/07/29 07:21:18;;;;;;;3.13;2.15;;;21.40;99.90;;;;;;4938129;28;20038;-72
2023/07/29 07:23:45;;;;;;;3.13;2.00;;;21.30;99.90;;;;;;4968132;28;20987;-72
2023/07/29 07:26:11;;;;;;;4.05;2.45;;;21.30;99.90;;;;;;4943545;28;20062;-73
2023/07/29 07:28:38;;;;;;;3.17;2.05;;;21.30;99.90;;;;;;4933413;28;20049;-72
2023/07/29 07:31:04;;;;;;;3.42;2.03;;;21.30;99.90;;;;;;4937897;28;20030;-73
2023/07/29 07:33:30;;;;;;;2.92;1.83;;;21.40;99.90;;;;;;4937449;28;20494;-72
2023/07/29 07:35:57;;;;;;;2.92;2.25;;;21.60;99.90;;;;;;4953459;28;20046;-73
2023/07/29 07:38:23;;;;;;;4.07;2.42;;;21.60;99.90;;;;;;4952514;28;20034;-72
2023/07/29 07:40:57;;;;;;;6.30;3.53;;;21.70;99.90;;;;;;4935769;28;20038;-73
2023/07/29 07:43:24;;;;;;;3.53;2.80;;;21.70;99.90;;;;;;4953635;28;20125;-73
2023/07/29 07:45:58;;;;;;;4.35;1.90;;;21.70;99.90;;;;;;4946989;28;20041;-73
2023/07/29 07:48:24;;;;;;;2.78;1.60;;;21.80;99.90;;;;;;4934960;28;20030;-73
2023/07/29 07:50:51;;;;;;;3.65;3.00;;;21.90;99.90;;;;;;4952733;28;20026;-73
2023/07/29 07:53:17;;;;;;;3.75;3.13;;;22.00;99.90;;;;;;4921244;28;20051;-73
2023/07/29 07:55:44;;;;;;;4.85;2.63;;;22.00;99.90;;;;;;4937325;28;20026;-73
2023/07/29 07:58:10;;;;;;;4.53;2.38;;;21.90;99.90;;;;;;4919044;28;20038;-73
2023/07/29 08:00:36;;;;;;;1.85;1.40;;;21.80;99.90;;;;;;4935836;28;20055;-73
2023/07/29 08:03:03;;;;;;;5.30;3.97;;;21.70;99.90;;;;;;4936806;28;20038;-73
2023/07/29 08:05:30;;;;;;;5.97;3.15;;;21.70;99.90;;;;;;4951591;28;20039;-73
2023/07/29 08:07:57;;;;;;;2.67;1.67;;;21.60;99.90;;;;;;4954375;28;20031;-73
2023/07/29 08:10:24;;;;;;;2.28;1.30;;;21.60;99.90;;;;;;4963917;28;20035;-73
2023/07/29 08:12:50;;;;;;;3.20;2.30;;;21.70;99.90;;;;;;4938053;28;20387;-73
2023/07/29 08:15:17;;;;;;;3.13;1.92;;;21.70;99.90;;;;;;4920974;28;20030;-73
2023/07/29 08:17:43;;;;;;;3.58;2.03;;;21.60;99.90;;;;;;4937554;28;20053;-73
2023/07/29 08:20:10;;;;;;;4.03;2.85;;;21.40;99.90;;;;;;4931738;28;20026;-73
2023/07/29 08:22:36;;;;;;;2.63;2.28;;;21.40;99.90;;;;;;4938187;28;20050;-73
2023/07/29 08:25:03;;;;;;;3.03;2.28;;;21.40;99.90;;;;;;4952421;28;20035;-73
2023/07/29 08:27:30;;;;;;;3.35;1.42;;;21.40;99.90;;;;;;4933872;28;20347;-73
2023/07/29 08:29:56;;;;;;;3.00;1.02;;;21.40;99.90;;;;;;4948089;28;20053;-73
2023/07/29 08:32:23;;;;;;;2.65;1.40;;;21.50;99.90;;;;;;4935782;28;20040;-73
2023/07/29 08:34:49;;;;;;;2.05;1.25;;;21.60;99.90;;;;;;4936123;28;20034;-73
2023/07/29 08:37:16;;;;;;;2.17;1.33;;;21.70;99.90;;;;;;4952540;28;20050;-73
2023/07/29 08:39:42;;;;;;;2.72;1.83;;;21.80;99.90;;;;;;4954694;28;20390;-73
2023/07/29 08:42:11;;;;;;;2.58;1.20;;;21.80;99.90;;;;;;4950700;28;20035;-73
2023/07/29 08:44:43;;;;;;;2.13;1.00;;;21.70;99.90;;;;;;4908574;28;20027;-73
2023/07/29 08:47:10;;;;;;;1.52;1.02;;;21.60;99.90;;;;;;4936958;28;20038;-73
2023/07/29 08:49:38;;;;;;;1.50;1.00;;;21.50;99.90;;;;;;4934354;28;20035;-73
2023/07/29 08:52:06;;;;;;;2.58;1.20;;;21.50;99.90;;;;;;4950388;28;20038;-73
2023/07/29 08:54:33;;;;;;;1.42;0.90;;;21.30;99.90;;;;;;4956079;28;20368;-73
2023/07/29 08:57:00;;;;;;;1.92;1.15;;;21.30;99.90;;;;;;4934424;28;20041;-73
2023/07/29 08:59:28;;;;;;;2.92;1.45;;;21.60;99.90;;;;;;4953902;28;20034;-73
2023/07/29 09:01:57;;;;;;;0.98;0.60;;;21.90;99.90;;;;;;4964422;28;20035;-73
2023/07/29 09:04:24;;;;;;;1.30;0.60;;;22.20;99.90;;;;;;4954913;28;20497;-73
2023/07/29 09:06:52;;;;;;;1.48;0.60;;;22.60;99.90;;;;;;4921093;28;20949;-73
2023/07/29 09:09:18;;;;;;;2.30;0.68;;;22.70;99.90;;;;;;4950277;28;20046;-73
2023/07/29 09:11:44;;;;;;;1.63;0.80;;;22.60;99.90;;;;;;4952894;28;20023;-73
2023/07/29 09:14:13;;;;;;;2.05;0.70;;;22.50;99.90;;;;;;4933720;28;20043;-72
2023/07/29 09:16:39;;;;;;;1.30;0.60;;;22.50;99.90;;;;;;4909711;28;20026;-73
2023/07/29 09:19:06;;;;;;;1.98;0.80;;;22.50;99.90;;;;;;4930099;28;20513;-73
2023/07/29 09:21:32;;;;;;;1.08;0.52;;;22.50;99.90;;;;;;4954965;28;20034;-73
2023/07/29 09:24:07;;;;;;;2.65;0.70;;;22.40;99.90;;;;;;4953476;28;20038;-73
2023/07/29 09:26:34;;;;;;;1.52;0.60;;;22.30;99.90;;;;;;4958722;28;20043;-73
2023/07/29 09:29:00;;;;;;;1.08;0.60;;;22.10;99.90;;;;;;4952913;28;20027;-72
2023/07/29 09:31:29;;;;;;;2.97;1.10;;;22.00;99.90;;;;;;4955051;28;20034;-72
2023/07/29 09:34:00;;;;;;;1.05;0.73;;;21.90;99.90;;;;;;4956007;28;20119;-73
2023/07/29 09:36:27;;;;;;;1.30;0.65;;;22.00;99.90;;;;;;4943415;28;20057;-73
2023/07/29 09:38:57;;;;;;;1.35;0.50;;;22.20;99.90;;;;;;4935375;28;20045;-73
2023/07/29 09:41:28;;;;;;;1.33;0.55;;;22.40;99.90;;;;;;4941312;28;20489;-73
2023/07/29 09:43:59;;;;;;;1.10;0.50;;;22.60;99.90;;;;;;4954538;28;20035;-72
2023/07/29 09:46:32;;;;;;;1.87;0.70;;;22.70;99.90;;;;;;4957339;28;20042;-72
2023/07/29 09:48:59;;;;;;;2.40;0.60;;;22.90;99.90;;;;;;4936995;28;20074;-72
2023/07/29 09:51:26;;;;;;;1.95;0.60;;;23.00;99.90;;;;;;4938506;28;20034;-72
2023/07/29 09:53:52;;;;;;;1.52;0.65;;;23.10;99.90;;;;;;4937788;28;20049;-72
2023/07/29 09:56:26;;;;;;;2.22;0.90;;;23.20;99.90;;;;;;4964311;28;20042;-72
2023/07/29 09:58:57;;;;;;;1.45;0.55;;;23.40;99.90;;;;;;4953712;28;20030;-72
2023/07/29 10:01:24;;;;;;;1.00;0.45;;;23.60;99.90;;;;;;4958296;28;20034;-72
2023/07/29 10:03:50;;;;;;;1.77;0.40;;;24.00;99.90;;;;;;4937679;28;20034;-72
2023/07/29 10:06:18;;;;;;;2.25;0.90;;;24.30;99.90;;;;;;4934795;28;20030;-72
2023/07/29 10:08:45;;;;;;;2.42;0.93;;;24.60;99.90;;;;;;4949694;28;20039;-72
2023/07/29 10:11:12;;;;;;;1.98;0.82;;;24.80;99.90;;;;;;4952950;28;20030;-72
2023/07/29 10:13:39;;;;;;;1.58;0.60;;;24.90;99.90;;;;;;4954634;28;20038;-72
2023/07/29 10:16:05;;;;;;;1.90;0.80;;;25.00;99.90;;;;;;4921885;28;21538;-73
2023/07/29 10:18:33;;;;;;;1.50;0.50;;;25.10;99.90;;;;;;4952860;28;20034;-71
2023/07/29 10:21:01;;;;;;;1.60;0.60;;;25.30;99.90;;;;;;4935136;28;20498;-71
2023/07/29 10:23:38;;;;;;;1.25;0.63;;;25.60;99.90;;;;;;4947987;28;20043;-71
2023/07/29 10:26:07;;;;;;;3.00;1.15;;;25.70;99.90;;;;;;4922003;28;20039;-70
2023/07/29 10:28:39;;;;;;;1.73;0.85;;;26.00;99.90;;;;;;4934040;28;20057;-72
2023/07/29 10:31:07;;;;;;;1.60;0.68;;;26.20;99.90;;;;;;4952987;28;20049;-71
2023/07/29 10:33:34;;;;;;;2.58;0.63;;;26.20;99.90;;;;;;4949834;28;20498;-71
2023/07/29 10:36:02;;;;;;;0.80;0.50;;;26.20;99.90;;;;;;4951588;28;20034;-71
2023/07/29 10:38:29;;;;;;;4.38;0.75;;;26.50;99.90;;;;;;4933198;28;20595;-71
2023/07/29 10:40:57;;;;;;;1.13;0.40;;;26.70;99.90;;;;;;4952749;28;20038;-71
2023/07/29 10:43:26;;;;;;;1.00;0.50;;;26.90;99.90;;;;;;4951641;28;20038;-71
2023/07/29 10:45:55;;;;;;;1.50;0.50;;;26.80;99.90;;;;;;4951840;28;20035;-71
2023/07/29 10:48:37;;;;;;;2.25;0.80;;;26.80;99.90;;;;;;4930706;28;20484;-71
2023/07/29 10:51:32;;;;;;;2.05;0.70;;;26.80;99.90;;;;;;4921158;28;20618;-71
2023/07/29 10:54:09;;;;;;;1.38;0.50;;;27.10;99.90;;;;;;4935300;28;20047;-71
2023/07/29 10:56:41;;;;;;;1.55;0.70;;;27.10;99.90;;;;;;4953090;28;20039;-70
2023/07/29 10:59:17;;;;;;;2.22;0.88;;;27.00;99.90;;;;;;4944686;28;20496;-70
2023/07/29 11:02:01;;;;;;;3.03;0.90;;;27.00;99.90;;;;;;4955171;28;20034;-71
2023/07/29 11:04:33;;;;;;;2.15;0.80;;;26.90;99.90;;;;;;4963400;28;20031;-72
2023/07/29 11:07:10;;;;;;;2.28;0.88;;;26.70;99.90;;;;;;4936385;28;20043;-71
2023/07/29 11:09:39;;;;;;;1.30;0.60;;;26.60;99.90;;;;;;4948432;28;20042;-71
2023/07/29 11:12:26;;;;;;;1.75;0.68;;;26.50;99.90;;;;;;4935208;28;20106;-71
2023/07/29 11:14:53;;;;;;;3.20;1.77;;;26.40;99.90;;;;;;4929479;28;20454;-71
2023/07/29 11:17:19;;;;;;;2.60;1.27;;;26.40;99.90;;;;;;4949768;28;20394;-70
2023/07/29 11:19:46;;;;;;;2.60;0.70;;;26.30;99.90;;;;;;4931909;28;20041;-71
2023/07/29 11:22:13;;;;;;;1.10;0.70;;;26.20;99.90;;;;;;4919688;28;20042;-70
2023/07/29 11:24:42;;;;;;;0.93;0.60;;;26.00;99.90;;;;;;4954694;28;20030;-70
2023/07/29 11:27:11;;;;;;;0.98;0.57;;;25.80;99.90;;;;;;4953930;28;20053;-71
2023/07/29 11:29:38;;;;;;;1.00;0.50;;;25.40;99.90;;;;;;4933893;28;20053;-71
2023/07/29 11:32:04;;;;;;;0.60;0.40;;;25.20;99.90;;;;;;4935677;28;20041;-71
2023/07/29 11:34:32;;;;;;;1.05;0.60;;;24.90;99.90;;;;;;4936938;28;20054;-71
2023/07/29 11:36:58;;;;;;;1.20;0.50;;;24.60;99.90;;;;;;4918073;28;20042;-71
2023/07/29 11:39:25;;;;;;;1.48;0.60;;;24.30;99.90;;;;;;4917210;28;20031;-71
2023/07/29 11:41:52;;;;;;;2.60;0.80;;;24.10;99.90;;;;;;4954507;28;20042;-71
2023/07/29 11:44:18;;;;;;;1.98;0.57;;;23.90;99.90;;;;;;4936729;28;20054;-71
2023/07/29 11:46:45;;;;;;;3.13;2.45;;;23.90;99.90;;;;;;4920811;28;20069;-71
2023/07/29 11:49:11;;;;;;;11.70;10.45;;;23.80;99.90;;;;;;4932034;28;20111;-71
2023/07/29 11:51:38;;;;;;;10.95;9.40;;;23.80;99.90;;;;;;4936631;28;20043;-71
2023/07/29 11:54:05;;;;;;;5.47;4.95;;;23.70;99.90;;;;;;4933388;28;20050;-71
2023/07/29 11:56:32;;;;;;;2.45;1.35;;;23.60;99.90;;;;;;4933999;28;20050;-71
2023/07/29 11:58:59;;;;;;;2.08;0.70;;;23.50;99.90;;;;;;4947608;28;21239;-71
2023/07/29 12:01:27;;;;;;;1.58;0.60;;;23.40;99.90;;;;;;4933777;28;20039;-71
2023/07/29 12:03:57;;;;;;;15.02;12.38;;;23.10;99.90;;;;;;4952251;28;20027;-70
2023/07/29 12:06:24;;;;;;;12.75;9.95;;;22.80;99.90;;;;;;4962211;28;20027;-71
2023/07/29 12:08:51;;;;;;;5.43;3.85;;;22.50;99.90;;;;;;4928222;28;20573;-70
2023/07/29 12:11:18;;;;;;;2.30;0.90;;;22.20;99.90;;;;;;4949545;28;20038;-71
2023/07/29 12:13:46;;;;;;;1.90;0.70;;;21.80;99.90;;;;;;4899812;28;20053;-72
2023/07/29 12:16:20;;;;;;;0.73;0.50;;;21.50;99.90;;;;;;4952487;28;20129;-73
2023/07/29 12:18:48;;;;;;;0.77;0.40;;;21.20;99.90;;;;;;4931644;28;20043;-74
2023/07/29 12:21:15;;;;;;;0.93;0.40;;;21.00;99.90;;;;;;4935812;28;20814;-72
2023/07/29 12:23:41;;;;;;;0.77;0.40;;;20.70;99.90;;;;;;4918674;28;20054;-72
2023/07/29 12:26:08;;;;;;;1.90;0.50;;;20.60;99.90;;;;;;4953553;28;20043;-71
2023/07/29 12:28:34;;;;;;;74.65;66.05;;;20.60;99.90;;;;;;4913925;28;20039;-71
2023/07/29 12:31:01;;;;;;;37.38;33.38;;;20.80;99.90;;;;;;4932747;28;20046;-72
2023/07/29 12:33:35;;;;;;;16.27;14.57;;;21.00;99.90;;;;;;4935261;28;20043;-72
2023/07/29 12:36:03;;;;;;;6.40;4.50;;;21.10;99.90;;;;;;4961678;28;20045;-73
2023/07/29 12:38:29;;;;;;;2.30;1.92;;;21.10;99.90;;;;;;4948089;28;20049;-71
2023/07/29 12:40:56;;;;;;;2.00;0.95;;;21.10;99.90;;;;;;4936053;28;20754;-73
2023/07/29 12:43:22;;;;;;;0.95;0.70;;;21.20;99.90;;;;;;4933811;28;20112;-72
2023/07/29 12:45:52;;;;;;;2.67;1.58;;;21.20;99.90;;;;;;4952034;28;20042;-73
2023/07/29 12:48:18;;;;;;;2.25;1.10;;;21.20;99.90;;;;;;4949686;28;20534;-72